Ruby, LA (71365)

9:13 PM CDT on August 25, 2016 (GMT -0500)
Hwy 454 Rapides/Avoyelles Parish Line | | Change Station
Active Advisory: Flood Warning

Elev 105 ft 31.16 °N, 92.22 °W | Updated 3 minutes ago

Clear
Clear
73.8 °F
Feels Like 73.8 °F
N
0.0
Wind Variable Wind from SSE

Today
High -- | Low -- °F
--% Chance of Precip.
Yesterday
High -- | Low -- °F
Precip. -- in
Pressure 30.08 in
Visibility 10.0 miles
Clouds Clear
Dew Point 74 °F
Humidity 99%
Rainfall 0.25 in
Snow Depth Not available.
6:41 AM 7:40 PM
Last Quarter, 39% visible
METAR KESF 260153Z AUTO 34004KT 10SM CLR 24/23 A3009 RMK AO2 SLP186 T02390233 $
Pressure 30.08 in
Visibility 10.0 miles
Clouds Clear
Dew Point 74 °F
Humidity 99%
Rainfall 0.25 in
Snow Depth Not available.
6:41 AM 7:40 PM
Last Quarter, 39% visible
METAR KESF 260153Z AUTO 34004KT 10SM CLR 24/23 A3009 RMK AO2 SLP186 T02390233 $
A tropical disturbance pushing toward the Bahamas, is expected to develop into a tropical depression or storm, and will likely target Florida and the Gulf Coast this weekend into next week.

Right now, the disturbance remains a broad area of low pressure pushing through the Dominican Republic and Haiti, headed toward the southeast Bahamas. Rainfall totals over 3 inches (with locally higher amounts) are expected in HispaƱiola, particularly over elevated terrain.

10-Day Weather Forecast

Almanac

Astronomy

Aug. 25, 2016 Rise Set
Actual Time
Civil Twilight
Nautical Twilight
Astronomical Twilight
Moon
Length of Visible Light
Length of Day
Tomorrow will be .
, % of the Moon is Illuminated

Today's Extremes

State Highs State Lows

Community

WunderPhotos

Upload Photos

1,935,030 photos uploaded!

WunderBlog® & News

Nearby

Air Quality

  Air Quality AQ Index Pollutant
Not available.

Snow Depth

Station Depth Elevation

Earthquake Activity

City Distance Mag. Time & Date
Minimum magnitude displayed is 2.5.

Coastal Water Temperatures

Place Temperature

Stations

Nearby Weather Stations

Station Location Temp. Windchill Dew Point Humidity Wind Precip. Elev Updated Type
                   

Watches & Warnings

Flood Warning
Issued: 8:27 PM CDT Aug. 25, 2016 – National Weather Service

... Flood Warning extended until Saturday evening... the Flood Warning
continues for
the Calcasieu River near Glenmora.
* Until Saturday evening... or until the warning is cancelled.
* At 7:45 PM Thursday the stage was 13.3 feet.
* Minor flooding is occurring and minor flooding is forecast.
* Flood stage is 12.0 feet.
* Forecast... the river will continue to fall to below flood stage by
Saturday early afternoon.
* Impact... at stages near 12.0 feet... when the river is falling and
the gauge reading is forecast to be near 12 feet, flooding of
forested areas near the river will occur.


Lat... Lon 3113 9279 3090 9269 3090 9262 3105 9265 3115 9275